Time;durP1;ratioP1;P1;durP2;ratioP2;P2;SDS_P1;SDS_P2;PMS_P1;PMS_P2;Temp;Humidity;BMP_temperature;BMP_pressure;BME280_temperature;BME280_humidity;BME280_pressure;Samples;Min_cycle;Max_cycle;Signal;HPM_P1;HPM_P2
2022/03/04 00:01:04;;;;;;;;;;;0.20;74.00;;;;;;5180400;28;19929;-81
2022/03/04 00:03:38;;;;;;;;;;;0.10;74.70;;;;;;5195511;28;19932;-82
2022/03/04 00:06:10;;;;;;;;;;;0.10;75.10;;;;;;5198861;28;19936;-84
2022/03/04 00:08:43;;;;;;;;;;;0.10;75.20;;;;;;5178262;28;20385;-83
2022/03/04 00:11:15;;;;;;;;;;;0.00;74.60;;;;;;5195925;28;19921;-82
2022/03/04 00:13:48;;;;;;;;;;;0.00;74.80;;;;;;5177886;28;19936;-83
2022/03/04 00:16:20;;;;;;;;;;;0.00;74.30;;;;;;5197065;28;19956;-81
2022/03/04 00:19:09;;;;;;;;;;;-0.10;74.50;;;;;;5196917;28;19925;-82
2022/03/04 00:21:44;;;;;;;;;;;0.00;75.50;;;;;;5191423;28;20494;-84
2022/03/04 00:24:17;;;;;;;;;;;-0.10;76.60;;;;;;5168502;28;19925;-83
2022/03/04 00:26:50;;;;;;;;;;;-0.10;75.60;;;;;;5194867;28;19929;-84
2022/03/04 00:29:22;;;;;;;;;;;-0.10;75.00;;;;;;5197687;28;19925;-81
2022/03/04 00:31:55;;;;;;;;;;;-0.10;75.60;;;;;;5196015;28;19928;-81
2022/03/04 00:34:27;;;;;;;;;;;-0.20;75.90;;;;;;5179638;28;20311;-81
2022/03/04 00:37:00;;;;;;;;;;;-0.20;75.90;;;;;;5199310;28;19929;-80
2022/03/04 00:39:32;;;;;;;;;;;-0.20;76.10;;;;;;5189331;28;19925;-82
2022/03/04 00:42:05;;;;;;;;;;;-0.20;75.90;;;;;;5197533;28;19932;-81
2022/03/04 00:44:39;;;;;;;;;;;-0.20;76.20;;;;;;5179425;28;19921;-82
2022/03/04 00:47:12;;;;;;;;;;;0.00;76.70;;;;;;5162559;28;20285;-80
2022/03/04 00:49:44;;;;;;;;;;;-0.20;75.90;;;;;;5178936;28;19925;-82
2022/03/04 00:52:19;;;;;;;;;;;-0.20;75.80;;;;;;5162336;28;19920;-82
2022/03/04 00:54:52;;;;;;;;;;;-0.20;76.10;;;;;;5169783;28;19921;-84
2022/03/04 00:57:24;;;;;;;;;;;-0.30;75.70;;;;;;5177772;28;19925;-82
2022/03/04 00:59:57;;;;;;;;;;;-0.40;76.00;;;;;;5190420;28;19928;-79
2022/03/04 01:02:29;;;;;;;;;;;-0.40;75.80;;;;;;5192116;28;19932;-81
2022/03/04 01:05:02;;;;;;;;;;;-0.60;76.50;;;;;;5192351;28;19935;-81
2022/03/04 01:07:34;;;;;;;;;;;-0.50;76.70;;;;;;5174839;28;19928;-82
2022/03/04 01:10:07;;;;;;;;;;;-0.50;76.70;;;;;;5175747;28;19920;-82
2022/03/04 01:12:39;;;;;;;;;;;-0.50;76.80;;;;;;5161468;28;19925;-81
2022/03/04 01:15:12;;;;;;;;;;;-0.40;77.30;;;;;;5176401;28;19936;-81
2022/03/04 01:17:44;;;;;;;;;;;-0.50;77.80;;;;;;5192805;28;19921;-81
2022/03/04 01:20:19;;;;;;;;;;;-0.60;77.70;;;;;;5192397;28;19929;-82
2022/03/04 01:22:56;;;;;;;;;;;-0.60;76.80;;;;;;5161237;28;20336;-83
2022/03/04 01:25:32;;;;;;;;;;;-0.60;76.60;;;;;;5160312;28;19921;-82
2022/03/04 01:28:07;;;;;;;;;;;-0.70;76.60;;;;;;5185794;28;19925;-82
2022/03/04 01:30:40;;;;;;;;;;;-0.70;77.50;;;;;;5176496;28;19925;-81
2022/03/04 01:33:12;;;;;;;;;;;-0.50;77.70;;;;;;5193798;28;19925;-81
2022/03/04 01:35:48;;;;;;;;;;;-0.70;77.90;;;;;;5171028;28;19925;-81
2022/03/04 01:38:27;;;;;;;;;;;-0.80;78.00;;;;;;5161657;28;20404;-83
2022/03/04 01:40:59;;;;;;;;;;;-0.80;78.00;;;;;;5191866;28;19921;-82
2022/03/04 01:43:32;;;;;;;;;;;-0.80;78.00;;;;;;5194487;28;19929;-81
2022/03/04 01:46:15;;;;;;;;;;;-0.90;78.00;;;;;;5210946;28;19921;-80
2022/03/04 01:48:48;;;;;;;;;;;-0.70;78.70;;;;;;5219807;28;19931;-80
2022/03/04 01:51:20;;;;;;;;;;;-0.90;78.30;;;;;;5217442;28;19925;-83
2022/03/04 01:53:57;;;;;;;;;;;-1.00;78.40;;;;;;5189227;28;19928;-81
2022/03/04 01:56:31;;;;;;;;;;;-1.00;78.20;;;;;;5154595;28;19924;-81
2022/03/04 01:59:03;;;;;;;;;;;-1.00;78.00;;;;;;5200715;28;19925;-82
2022/03/04 02:01:36;;;;;;;;;;;-1.00;78.60;;;;;;5197209;28;20471;-82
2022/03/04 02:04:09;;;;;;;;;;;-1.00;78.50;;;;;;5204200;28;19929;-84
2022/03/04 02:06:41;;;;;;;;;;;-1.30;78.70;;;;;;5168973;28;19925;-82
2022/03/04 02:09:14;;;;;;;;;;;-0.90;79.20;;;;;;5202103;28;20008;-80
2022/03/04 02:11:48;;;;;;;;;;;-1.00;79.20;;;;;;5184041;28;19925;-82
2022/03/04 02:14:23;;;;;;;;;;;-1.00;78.50;;;;;;5205809;28;19932;-80
2022/03/04 02:17:00;;;;;;;;;;;-1.10;78.40;;;;;;5174335;28;20352;-79
2022/03/04 02:19:32;;;;;;;;;;;-1.10;79.00;;;;;;5184436;28;19932;-79
2022/03/04 02:22:07;;;;;;;;;;;-1.10;78.40;;;;;;5187835;28;19936;-82
2022/03/04 02:24:39;;;;;;;;;;;-1.10;79.00;;;;;;5180566;28;19932;-83
2022/03/04 02:27:12;;;;;;;;;;;-1.20;78.90;;;;;;5199182;28;19929;-82
2022/03/04 02:29:44;;;;;;;;;;;-1.10;79.10;;;;;;5183623;28;19921;-81
2022/03/04 02:32:22;;;;;;;;;;;-1.50;78.30;;;;;;5192583;28;20301;-82
2022/03/04 02:34:54;;;;;;;;;;;-1.20;79.30;;;;;;5196030;28;20424;-82
2022/03/04 02:37:28;;;;;;;;;;;-1.30;78.90;;;;;;5165599;28;19928;-84
2022/03/04 02:40:00;;;;;;;;;;;-1.30;79.20;;;;;;5176871;28;19932;-82
2022/03/04 02:42:32;;;;;;;;;;;-1.20;80.60;;;;;;5194480;28;19920;-82
2022/03/04 02:45:05;;;;;;;;;;;-1.20;80.00;;;;;;5188996;28;19925;-81
2022/03/04 02:47:37;;;;;;;;;;;-1.20;80.30;;;;;;5205327;28;19921;-81
2022/03/04 02:50:18;;;;;;;;;;;-1.20;80.40;;;;;;5199472;28;19929;-80
2022/03/04 02:53:02;;;;;;;;;;;-0.80;80.90;;;;;;5179076;28;19936;-82
2022/03/04 02:55:34;;;;;;;;;;;-1.10;79.90;;;;;;5194673;28;20271;-84
2022/03/04 02:58:07;;;;;;;;;;;-1.20;80.30;;;;;;5188671;28;19928;-82
2022/03/04 03:00:40;;;;;;;;;;;-1.20;80.30;;;;;;5174057;28;19928;-85
2022/03/04 03:03:15;;;;;;;;;;;-1.20;80.00;;;;;;5203705;28;19932;-81
2022/03/04 03:05:47;;;;;;;;;;;-0.50;79.70;;;;;;5206037;28;19935;-84
2022/03/04 03:08:19;;;;;;;;;;;-1.30;79.20;;;;;;5195412;28;19921;-82
2022/03/04 03:10:52;;;;;;;;;;;-1.20;79.30;;;;;;5215488;28;19931;-82
2022/03/04 03:13:24;;;;;;;;;;;-1.10;79.70;;;;;;5188555;28;19959;-80
2022/03/04 03:15:59;;;;;;;;;;;-1.50;80.00;;;;;;5189828;28;19925;-84
2022/03/04 03:18:32;;;;;;;;;;;-1.50;80.00;;;;;;5196061;28;19925;-83
2022/03/04 03:21:05;;;;;;;;;;;-1.50;79.80;;;;;;5214814;28;19932;-81
2022/03/04 03:23:37;;;;;;;;;;;-1.70;79.80;;;;;;5214125;28;19932;-84
2022/03/04 03:26:10;;;;;;;;;;;-1.50;80.50;;;;;;5216662;28;19920;-82
2022/03/04 03:28:49;;;;;;;;;;;-1.60;79.80;;;;;;5204653;28;19921;-82
2022/03/04 03:31:22;;;;;;;;;;;-1.60;80.10;;;;;;5219455;28;19919;-81
2022/03/04 03:33:54;;;;;;;;;;;-1.60;80.40;;;;;;5189080;28;19925;-81
2022/03/04 03:36:27;;;;;;;;;;;-1.70;80.90;;;;;;5188537;28;19925;-83
2022/03/04 03:38:59;;;;;;;;;;;-1.70;80.80;;;;;;5164443;28;19924;-83
2022/03/04 03:41:31;;;;;;;;;;;-1.70;80.90;;;;;;5180065;28;19932;-83
2022/03/04 03:44:07;;;;;;;;;;;-1.80;80.50;;;;;;5174760;28;19921;-83
2022/03/04 03:46:58;;;;;;;;;;;-1.60;80.50;;;;;;5179347;28;19936;-81
2022/03/04 03:49:39;;;;;;;;;;;-1.90;80.80;;;;;;5189494;28;19924;-85
2022/03/04 03:52:45;;;;;;;;;;;-1.90;81.10;;;;;;5165742;28;19929;-83
2022/03/04 03:55:59;;;;;;;;;;;-1.90;81.10;;;;;;5102451;28;19922;-83
2022/03/04 03:59:12;;;;;;;;;;;-2.00;81.40;;;;;;5124890;28;19928;-84
2022/03/04 04:02:36;;;;;;;;;;;-2.50;80.80;;;;;;5131862;28;19926;-84
2022/03/04 04:05:23;;;;;;;;;;;-2.00;81.60;;;;;;5115795;28;20558;-83
2022/03/04 04:13:14;;;;;;;;;;;-2.10;81.60;;;;;;5035682;29;20479;-85
2022/03/04 04:17:12;;;;;;;;;;;;;;;;;;;;;
2022/03/04 04:24:25;;;;;;;;;;;-1.80;81.70;;;;;;5079638;29;19923;-83
2022/03/04 04:28:11;;;;;;;;;;;-2.10;81.80;;;;;;5082547;29;19927;-81
2022/03/04 04:36:13;;;;;;;;;;;-2.10;81.80;;;;;;5014320;29;19935;-84
2022/03/04 04:39:39;;;;;;;;;;;-1.60;82.10;;;;;;5047561;29;19943;-84
2022/03/04 04:42:12;;;;;;;;;;;-1.30;82.50;;;;;;5027935;29;19927;-84
2022/03/04 04:44:44;;;;;;;;;;;-2.30;81.50;;;;;;5082536;28;20317;-83
2022/03/04 04:47:17;;;;;;;;;;;-2.30;81.70;;;;;;5115051;28;19925;-83
2022/03/04 04:49:52;;;;;;;;;;;-2.40;81.40;;;;;;5133977;28;19936;-85
2022/03/04 04:52:24;;;;;;;;;;;-2.40;81.20;;;;;;5129805;28;19922;-83
2022/03/04 04:54:57;;;;;;;;;;;-2.50;81.80;;;;;;5142149;28;20621;-85
2022/03/04 04:57:46;;;;;;;;;;;-2.50;81.80;;;;;;5135103;28;20003;-84
2022/03/04 05:00:53;;;;;;;;;;;-2.80;82.90;;;;;;5133836;28;19926;-84
2022/03/04 05:08:56;;;;;;;;;;;-2.60;82.40;;;;;;5080543;28;20027;-83
2022/03/04 05:13:19;;;;;;;;;;;;;;;;;;;;;
2022/03/04 05:16:41;;;;;;;;;;;-2.60;82.70;;;;;;5155766;28;19920;-83
2022/03/04 05:36:16;;;;;;;;;;;-2.00;82.70;;;;;;5103629;28;19996;-83
2022/03/04 05:38:49;;;;;;;;;;;-3.00;82.60;;;;;;5093782;28;19923;-83
2022/03/04 05:41:24;;;;;;;;;;;-2.60;82.90;;;;;;5121593;28;20610;-83
2022/03/04 05:43:56;;;;;;;;;;;-1.70;83.60;;;;;;5121161;28;19926;-83
2022/03/04 05:46:29;;;;;;;;;;;-2.30;83.70;;;;;;5108694;28;19970;-84
2022/03/04 05:49:02;;;;;;;;;;;-2.70;82.80;;;;;;5110901;28;19926;-84
2022/03/04 05:51:35;;;;;;;;;;;-2.60;83.50;;;;;;5103666;28;19930;-83
2022/03/04 05:54:20;;;;;;;;;;;-5.30;81.60;;;;;;5117463;28;19935;-82
2022/03/04 05:56:52;;;;;;;;;;;-3.20;82.20;;;;;;5118337;28;19926;-82
2022/03/04 05:59:25;;;;;;;;;;;-2.90;83.00;;;;;;5121515;28;19933;-84
2022/03/04 06:02:00;;;;;;;;;;;-2.80;82.90;;;;;;5121051;28;20539;-84
2022/03/04 06:04:34;;;;;;;;;;;-3.00;82.90;;;;;;5110713;28;20354;-84
2022/03/04 06:07:06;;;;;;;;;;;-2.70;83.80;;;;;;5112783;28;20296;-82
2022/03/04 06:09:39;;;;;;;;;;;-3.50;83.10;;;;;;5183970;28;19917;-82
2022/03/04 06:12:46;;;;;;;;;;;-3.30;83.50;;;;;;5205139;28;19923;-86
2022/03/04 06:20:10;;;;;;;;;;;-2.80;83.80;;;;;;5056520;29;20367;-83
2022/03/04 06:24:04;;;;;;;;;;;-2.20;84.70;;;;;;5042134;29;20481;-84
2022/03/04 06:27:52;;;;;;;;;;;;;;;;;;;;;
2022/03/04 06:31:25;;;;;;;;;;;-2.30;84.40;;;;;;5083989;29;19931;-84
2022/03/04 06:34:21;;;;;;;;;;;-1.90;84.50;;;;;;5053293;29;19960;-84
2022/03/04 06:37:02;;;;;;;;;;;-2.10;85.00;;;;;;5084742;28;19933;-84
2022/03/04 06:39:37;;;;;;;;;;;-1.70;84.70;;;;;;5105071;28;19933;-84
2022/03/04 06:42:10;;;;;;;;;;;-1.80;84.80;;;;;;5126678;28;20024;-84
2022/03/04 06:44:45;;;;;;;;;;;-2.30;84.30;;;;;;5124963;28;20086;-83
2022/03/04 06:47:18;;;;;;;;;;;-1.70;84.30;;;;;;5120847;28;19922;-84
2022/03/04 06:50:20;;;;;;;;;;;-1.90;84.20;;;;;;5092532;28;20383;-83
2022/03/04 06:52:54;;;;;;;;;;;-2.30;84.20;;;;;;5095986;28;19927;-84
2022/03/04 06:55:27;;;;;;;;;;;-2.10;84.00;;;;;;5086557;28;20363;-84
2022/03/04 06:58:00;;;;;;;;;;;-2.10;83.50;;;;;;5120076;28;19982;-82
2022/03/04 07:00:33;;;;;;;;;;;-1.70;84.30;;;;;;5120686;28;19925;-83
2022/03/04 07:03:06;;;;;;;;;;;-2.10;84.70;;;;;;5106599;28;19998;-84
2022/03/04 07:05:43;;;;;;;;;;;-2.20;84.70;;;;;;5120779;28;20393;-83
2022/03/04 07:08:15;;;;;;;;;;;-3.20;83.80;;;;;;5127149;28;19936;-84
2022/03/04 07:11:16;;;;;;;;;;;-0.90;85.20;;;;;;5181581;28;19925;-81
2022/03/04 07:18:45;;;;;;;;;;;-1.30;85.10;;;;;;5181519;28;19936;-83
2022/03/04 07:22:22;;;;;;;;;;;-1.80;84.20;;;;;;5069489;29;19938;-82
2022/03/04 07:26:18;;;;;;;;;;;-1.40;84.50;;;;;;5040240;29;19971;-84
2022/03/04 07:29:33;;;;;;;;;;;-0.90;84.60;;;;;;5038925;29;19928;-83
2022/03/04 07:32:41;;;;;;;;;;;-1.40;83.60;;;;;;5038433;29;19947;-83
2022/03/04 07:35:45;;;;;;;;;;;-0.30;83.60;;;;;;5039049;29;19962;-82
2022/03/04 07:38:37;;;;;;;;;;;-1.30;82.50;;;;;;5036889;29;19935;-82
2022/03/04 07:41:16;;;;;;;;;;;-1.10;81.20;;;;;;5023904;29;19928;-82
2022/03/04 07:44:17;;;;;;;;;;;-0.10;80.80;;;;;;5076100;29;20403;-82
2022/03/04 07:47:11;;;;;;;;;;;-0.90;80.20;;;;;;5181046;28;19925;-82
2022/03/04 07:49:44;;;;;;;;;;;-1.10;79.60;;;;;;5183047;28;19929;-82
2022/03/04 07:52:16;;;;;;;;;;;-0.90;79.10;;;;;;5189886;28;19932;-83
2022/03/04 07:54:48;;;;;;;;;;;-0.80;78.40;;;;;;5185830;28;19921;-82
2022/03/04 07:57:21;;;;;;;;;;;-1.30;77.50;;;;;;5200751;28;19925;-80
2022/03/04 07:59:53;;;;;;;;;;;-0.20;77.70;;;;;;5206829;28;20265;-82
2022/03/04 08:02:26;;;;;;;;;;;-0.60;78.90;;;;;;5187103;28;19925;-80
2022/03/04 08:05:01;;;;;;;;;;;-0.90;78.20;;;;;;5180990;28;20065;-81
2022/03/04 08:07:37;;;;;;;;;;;-1.80;77.30;;;;;;5180542;28;19936;-81
2022/03/04 08:10:13;;;;;;;;;;;-0.40;77.50;;;;;;5175435;28;19936;-83
2022/03/04 08:12:45;;;;;;;;;;;-0.30;78.70;;;;;;5168594;28;19925;-82
2022/03/04 08:15:18;;;;;;;;;;;-1.10;76.70;;;;;;5200970;28;19952;-83
2022/03/04 08:17:50;;;;;;;;;;;0.30;77.80;;;;;;5203365;28;19936;-83
2022/03/04 08:20:26;;;;;;;;;;;0.40;76.40;;;;;;5202844;28;20456;-82
2022/03/04 08:23:01;;;;;;;;;;;0.40;74.90;;;;;;5192898;28;20790;-84
2022/03/04 08:25:34;;;;;;;;;;;0.00;73.30;;;;;;5199673;28;19929;-83
2022/03/04 08:28:06;;;;;;;;;;;-0.20;73.60;;;;;;5164615;28;19929;-81
2022/03/04 08:30:38;;;;;;;;;;;1.50;73.20;;;;;;5185972;28;19925;-83
2022/03/04 08:33:11;;;;;;;;;;;0.60;72.10;;;;;;5173527;28;19925;-82
2022/03/04 08:35:43;;;;;;;;;;;0.40;72.00;;;;;;5202321;28;20223;-81
2022/03/04 08:38:15;;;;;;;;;;;0.60;72.00;;;;;;5200265;28;19925;-82
2022/03/04 08:40:48;;;;;;;;;;;0.50;74.20;;;;;;5183870;28;19969;-82
2022/03/04 08:43:20;;;;;;;;;;;0.30;71.90;;;;;;5169393;28;19932;-80
2022/03/04 08:45:53;;;;;;;;;;;0.70;71.10;;;;;;5179587;28;20282;-83
2022/03/04 08:48:25;;;;;;;;;;;0.80;71.40;;;;;;5204244;28;19937;-80
2022/03/04 08:50:58;;;;;;;;;;;1.00;71.20;;;;;;5203073;28;19940;-80
2022/03/04 08:53:30;;;;;;;;;;;0.30;68.90;;;;;;5217103;28;19925;-80
2022/03/04 08:56:03;;;;;;;;;;;1.30;68.70;;;;;;5212740;28;19929;-79
2022/03/04 08:58:36;;;;;;;;;;;1.20;69.10;;;;;;5211397;28;19925;-81
2022/03/04 09:01:10;;;;;;;;;;;1.00;67.90;;;;;;5218407;28;19928;-83
2022/03/04 09:03:42;;;;;;;;;;;1.50;67.60;;;;;;5182500;28;19924;-79
2022/03/04 09:06:15;;;;;;;;;;;2.30;67.90;;;;;;5195314;28;19936;-81
2022/03/04 09:08:47;;;;;;;;;;;1.60;67.70;;;;;;5212143;28;19944;-81
2022/03/04 09:11:20;;;;;;;;;;;2.60;67.60;;;;;;5209530;28;19925;-81
2022/03/04 09:13:54;;;;;;;;;;;1.70;67.50;;;;;;5212155;28;19929;-81
2022/03/04 09:16:28;;;;;;;;;;;2.10;67.60;;;;;;5193931;28;19924;-83
2022/03/04 09:19:01;;;;;;;;;;;1.70;67.10;;;;;;5176444;28;19925;-83
2022/03/04 09:21:33;;;;;;;;;;;2.70;67.80;;;;;;5166109;28;19959;-82
2022/03/04 09:24:06;;;;;;;;;;;2.60;68.30;;;;;;5199406;28;21178;-83
2022/03/04 09:26:39;;;;;;;;;;;2.70;66.10;;;;;;5181823;28;19932;-82
2022/03/04 09:29:14;;;;;;;;;;;2.90;67.90;;;;;;5195946;28;19925;-83
2022/03/04 09:31:46;;;;;;;;;;;2.80;65.80;;;;;;5200621;28;19925;-83
2022/03/04 09:34:23;;;;;;;;;;;2.40;65.40;;;;;;5170336;28;19924;-82
2022/03/04 09:36:59;;;;;;;;;;;3.90;63.10;;;;;;5169814;28;19924;-82
2022/03/04 09:39:31;;;;;;;;;;;2.70;64.10;;;;;;5199691;28;19925;-83
2022/03/04 09:42:03;;;;;;;;;;;3.40;63.10;;;;;;5183350;28;19921;-84
2022/03/04 09:44:36;;;;;;;;;;;2.90;62.20;;;;;;5192917;28;19921;-82
2022/03/04 09:47:09;;;;;;;;;;;2.90;62.50;;;;;;5190899;28;19929;-84
2022/03/04 09:49:42;;;;;;;;;;;3.50;62.00;;;;;;5187980;28;19959;-81
2022/03/04 09:52:14;;;;;;;;;;;3.60;62.50;;;;;;5194443;28;19952;-84
2022/03/04 09:54:48;;;;;;;;;;;3.70;61.60;;;;;;5158485;28;19924;-84
2022/03/04 09:57:21;;;;;;;;;;;2.40;60.30;;;;;;5186113;28;19925;-83
2022/03/04 09:59:53;;;;;;;;;;;2.80;61.10;;;;;;5179978;28;19924;-85
2022/03/04 10:02:26;;;;;;;;;;;3.50;61.20;;;;;;5184096;28;19925;-82
2022/03/04 10:04:59;;;;;;;;;;;3.20;61.50;;;;;;5193756;28;19925;-81
2022/03/04 10:07:41;;;;;;;;;;;3.10;61.10;;;;;;5189088;28;19921;-82
2022/03/04 10:10:18;;;;;;;;;;;3.30;60.00;;;;;;5186469;28;19921;-81
2022/03/04 10:12:55;;;;;;;;;;;3.80;61.80;;;;;;5170485;28;19924;-83
2022/03/04 10:15:54;;;;;;;;;;;3.40;61.80;;;;;;5189613;28;20453;-81
2022/03/04 10:18:38;;;;;;;;;;;4.10;62.80;;;;;;5171834;28;19936;-83
2022/03/04 10:22:07;;;;;;;;;;;3.20;61.50;;;;;;5171603;28;19920;-82
2022/03/04 10:25:22;;;;;;;;;;;;;;;;;;;;;
2022/03/04 10:29:20;;;;;;;;;;;3.90;59.80;;;;;;5189397;28;19925;-80
2022/03/04 10:32:18;;;;;;;;;;;4.20;60.10;;;;;;5195326;28;19951;-82
2022/03/04 10:34:56;;;;;;;;;;;4.30;58.70;;;;;;5178469;28;20439;-85
2022/03/04 10:37:56;;;;;;;;;;;4.40;57.90;;;;;;5195116;28;19921;-83
2022/03/04 10:40:43;;;;;;;;;;;3.90;58.00;;;;;;5173712;28;19925;-82
2022/03/04 10:43:23;;;;;;;;;;;4.30;58.20;;;;;;5194451;28;20650;-82
2022/03/04 10:46:03;;;;;;;;;;;3.70;59.50;;;;;;5192865;28;19928;-82
2022/03/04 10:48:50;;;;;;;;;;;4.70;58.80;;;;;;5176084;28;19929;-81
2022/03/04 10:51:36;;;;;;;;;;;4.50;58.40;;;;;;5188270;28;20316;-82
2022/03/04 10:54:49;;;;;;;;;;;5.00;57.70;;;;;;5192658;28;19917;-83
2022/03/04 10:57:27;;;;;;;;;;;4.70;56.80;;;;;;5180560;28;21316;-83
2022/03/04 10:59:59;;;;;;;;;;;4.50;57.40;;;;;;5200383;28;19932;-81
2022/03/04 11:02:43;;;;;;;;;;;4.60;59.40;;;;;;5201027;28;19905;-82
2022/03/04 11:05:16;;;;;;;;;;;4.80;58.50;;;;;;5172142;28;20476;-84
2022/03/04 11:08:01;;;;;;;;;;;4.70;58.00;;;;;;5175376;28;19925;-80
2022/03/04 11:10:42;;;;;;;;;;;4.70;57.60;;;;;;5178187;28;19925;-83
2022/03/04 11:14:18;;;;;;;;;;;4.90;57.50;;;;;;5159204;28;19921;-83
2022/03/04 11:17:13;;;;;;;;;;;4.80;59.20;;;;;;5180373;28;20420;-81
2022/03/04 11:19:50;;;;;;;;;;;6.30;57.80;;;;;;5178250;28;20739;-82
2022/03/04 11:22:27;;;;;;;;;;;4.70;58.10;;;;;;5182401;28;20878;-82
2022/03/04 11:25:36;;;;;;;;;;;5.20;56.50;;;;;;5219009;23;20249;-86
2022/03/04 11:37:51;;;;;;;;;;;5.30;57.60;;;;;;5192638;28;19921;-86
2022/03/04 11:57:44;;;;;;;;;;;5.50;56.50;;;;;;5048171;29;19916;-86
2022/03/04 12:02:25;;;;;;;;;;;5.50;56.10;;;;;;5048504;29;19923;-87
